Kasugai, Japan
Current Conditions -  °F | °C
As of 6:00 AM on Wednesday 28 Jan 2015 (Local Time) from RJGG Reporting Station
Few Clouds Few Clouds  
Wind Chill: 27°   Ceiling: Unl
Heat Index: 37°   Visibility: 6mi
Dew Point: 25°   Wind: 18mph
Humidity: 60%   Direction: 340°NNW
Pressure: 30.06"   Gusts: NA
Location:  35.24°N, 136.98°E
Report Text: RJGG 272100Z 34016KT 9999 FEW020 03/M04 Q1018 NOSIG
Loading
Personal Weather Stations






























Interactive Weather Map New forecast layout! Learn more

10-Day Weather Forecast

Advertisements
Track Severe Weather on mobile